CW3821 Weather Reports


Display with metric or nautical units.
time (UTC)temp
F
wind
direction
speed
MPH
gust
MPH
rain 1hr
in
rain 24hr
in
rain mn
in
humidity
%
barometer
mb
20240718131559 63 326 3.0 0.0 0.00 0.00 0.00 66 1010.6
20240718130030 62 291 3.0 0.0 0.00 0.00 0.00 67 1010.6
20240718124531 61 287 4.0 0.0 0.00 0.00 0.00 68 1010.6
20240718123023 61 305 4.0 0.0 0.00 0.00 0.00 69 1010.6
20240718121524 60 291 2.0 0.0 0.00 0.00 0.00 70 1010.4
20240718120039 60 289 3.0 0.0 0.00 0.00 0.00 71 1010.7
20240718114610 60 298 6.0 0.0 0.00 0.00 0.00 72 1010.7
20240718114500 60 306 6.0 0.0 0.00 0.00 0.00 72 1010.7
20240718113031 60 308 3.0 0.0 0.00 0.00 0.00 73 1010.8
20240718111519 60 318 0.0 0.0 0.00 0.00 0.00 73 1010.2
20240718110010 60 359 2.0 0.0 0.00 0.00 0.00 71 1009.9
20240718104537 60 296 2.0 0.0 0.00 0.00 0.00 71 1009.5
20240718103031 61 326 4.0 0.0 0.00 0.00 0.00 72 1009.5
20240718101509 61 294 4.0 0.0 0.00 0.00 0.00 71 1009.2
20240718100049 61 302 2.0 0.0 0.00 0.00 0.00 70 1008.8
20240718094547 61 267 1.0 0.0 0.00 0.00 0.00 75 1008.9
20240718093029 60 234 0.0 0.0 0.00 0.00 0.00 75 1009.0
20240718091520 61 206 0.0 0.0 0.00 0.00 0.00 75 1009.8
20240718090039 61 188 0.0 0.0 0.00 0.00 0.00 75 1009.9
20240718084517 61 186 0.0 0.0 0.00 0.00 0.00 73 1010.2
20240718083016 62 199 1.0 0.0 0.00 0.00 0.00 72 1010.7
20240718081551 62 133 0.0 0.0 0.00 0.00 0.00 71 1010.9
20240718080055 63 174 4.0 0.0 0.00 0.00 0.00 70 1010.8
20240718074542 63 200 3.0 0.0 0.00 0.00 0.00 69 1011.2
20240718073023 63 175 2.0 0.0 0.00 0.00 0.00 69 1011.5
20240718071513 63 205 2.0 0.0 0.00 0.00 0.00 69 1010.6
20240718070047 63 191 2.0 0.0 0.00 0.00 0.00 70 1010.9
20240718064534 63 223 2.0 0.0 0.00 0.00 0.00 67 1011.0
20240718063016 63 198 3.0 0.0 0.00 0.00 0.00 69 1011.4
20240718061508 63 179 1.0 0.0 0.00 0.00 0.00 67 1012.0
20240718060113 64 6 0.0 0.0 0.00 0.00 0.00 64 1012.1
20240718054526 65 6 0.0 0.0 0.00 0.00 0.00 63 1012.3
20240718053010 66 6 1.0 0.0 0.00 0.00 0.00 60 1012.6
20240718051531 66 332 2.0 0.0 0.00 0.00 0.00 58 1012.8
20240718050012 66 305 1.0 0.0 0.00 0.00 0.00 60 1012.6
20240718044512 66 292 3.0 0.0 0.00 0.00 0.00 60 1012.8
20240718043006 66 294 4.0 0.0 0.00 0.00 0.00 61 1013.2
20240718041600 66 313 6.0 0.0 0.00 0.00 0.00 61 1013.9
20240718041509 66 292 5.0 0.0 0.00 0.00 0.00 62 1013.9
20240718040011 67 275 4.0 0.0 0.00 0.00 0.00 62 1014.0
20240718034505 67 332 4.0 0.0 0.00 0.00 0.00 61 1014.1
20240718033054 68 346 4.0 0.0 0.00 0.00 0.00 58 1013.6
20240718031552 68 301 5.0 0.0 0.00 0.00 0.00 57 1014.2
20240718030029 69 4 6.0 0.0 0.00 0.00 0.00 58 1013.6
20240718024544 69 316 6.0 0.0 0.00 0.00 0.00 59 1013.1
20240718023012 69 339 6.0 0.0 0.00 0.00 0.00 61 1012.2
20240718021511 71 11 8.0 0.0 0.00 0.00 0.00 57 1011.0
20240718020052 72 73 8.0 0.0 0.00 0.00 0.00 55 1010.2
20240718014552 75 21 9.0 0.0 0.00 0.00 0.00 48 1008.8
20240718013053 80 69 0.0 0.0 0.00 0.00 0.00 38 1008.6
20240718013002 80 119 0.0 0.0 0.00 0.00 0.00 38 1008.6
20240718011550 80 198 1.0 0.0 0.00 0.00 0.00 36 1009.5
20240718010052 80 131 2.0 0.0 0.00 0.00 0.00 35 1009.0
20240718004624 81 127 2.0 0.0 0.00 0.00 0.00 34 1009.5
20240718003031 80 186 5.0 0.0 0.00 0.00 0.00 35 1009.3
20240718001522 80 200 4.0 0.0 0.00 0.00 0.00 36 1009.6
20240718000027 80 141 5.0 0.0 0.00 0.00 0.00 36 1009.7
20240717234518 81 179 6.0 0.0 0.00 0.00 0.00 34 1009.7
20240717233023 81 185 4.0 0.0 0.00 0.00 0.00 34 1009.6
20240717231528 82 131 4.0 0.0 0.00 0.00 0.00 31 1009.4
20240717230040 82 143 4.0 0.0 0.00 0.00 0.00 32 1009.6
20240717224540 81 184 4.0 0.0 0.00 0.00 0.00 32 1009.7
20240717223034 83 148 1.0 0.0 0.00 0.00 0.00 28 1008.8
20240717221537 85 229 1.0 0.0 0.00 0.00 0.00 26 1009.0
20240717220039 84 272 1.0 0.0 0.00 0.00 0.00 27 1009.1
20240717214514 82 349 4.0 0.0 0.00 0.00 0.00 28 1009.5
20240717213047 82 268 5.0 0.0 0.00 0.00 0.00 30 1009.5
20240717211552 82 312 4.0 0.0 0.00 0.00 0.00 32 1009.9
20240717210049 81 278 4.0 0.0 0.00 0.00 0.00 31 1010.3
20240717204537 80 320 2.0 0.0 0.00 0.00 0.00 33 1010.5
20240717203012 80 359 3.0 0.0 0.00 0.00 0.00 33 1010.4
20240717201513 80 296 0.0 0.0 0.00 0.00 0.00 34 1010.1
20240717200043 80 285 2.0 0.0 0.00 0.00 0.00 35 1010.7
20240717194543 81 350 1.0 0.0 0.00 0.00 0.00 30 1010.3
20240717193036 82 357 1.0 0.0 0.00 0.00 0.00 30 1010.5
20240717191509 83 11 2.0 0.0 0.00 0.00 0.00 27 1009.6
20240717190007 84 64 3.0 0.0 0.00 0.00 0.00 28 1009.8
20240717184602 83 154 3.0 0.0 0.00 0.00 0.00 29 1009.7
20240717184503 83 141 3.0 0.0 0.00 0.00 0.00 29 1009.7
20240717183104 83 127 2.0 0.0 0.00 0.00 0.00 29 1010.1
20240717183001 83 96 2.0 0.0 0.00 0.00 0.00 28 1010.1
20240717181551 82 93 2.0 0.0 0.00 0.00 0.00 31 1010.2
20240717180033 80 31 3.0 0.0 0.00 0.00 0.00 34 1010.7
20240717174543 79 88 3.0 0.0 0.00 0.00 0.00 35 1010.8
20240717173018 79 24 2.0 0.0 0.00 0.00 0.00 37 1011.2
20240717171616 78 31 2.0 0.0 0.00 0.00 0.00 38 1011.2
20240717170037 77 311 2.0 0.0 0.00 0.00 0.00 39 1011.1
20240717164539 77 37 2.0 0.0 0.00 0.00 0.00 40 1011.3
20240717163040 76 100 3.0 0.0 0.00 0.00 0.00 41 1011.7
20240717161536 76 0 1.0 0.0 0.00 0.00 0.00 43 1012.1
20240717160009 75 229 2.0 0.0 0.00 0.00 0.00 44 1012.0
20240717154516 75 104 1.0 0.0 0.00 0.00 0.00 43 1012.4
20240717153038 73 1 2.0 0.0 0.00 0.00 0.00 47 1012.9
20240717151529 71 18 5.0 0.0 0.00 0.00 0.00 49 1012.1
20240717150034 71 7 2.0 0.0 0.00 0.00 0.00 51 1012.5
20240717144526 69 288 2.0 0.0 0.00 0.00 0.00 53 1012.8
20240717143021 68 0 2.0 0.0 0.00 0.00 0.00 54 1012.7
20240717141559 69 329 3.0 0.0 0.00 0.00 0.00 55 1012.1
20240717141510 69 319 3.0 0.0 0.00 0.00 0.00 55 1012.1
20240717140046 69 0 4.0 0.0 0.00 0.00 0.00 52 1012.5
20240717134529 66 336 0.0 0.0 0.00 0.00 0.00 55 1012.7
20240717133033 64 226 0.0 0.0 0.00 0.00 0.00 64 1012.9